Airfield :
LOGIN :

Register | Disclaimer

   EN    FR    IT 

 










Legend :    VFR   Marginal VFR   IFR   Intensive IFR   Very Intensive IFR
Visi :
Ceiling :
>= 8 km
>= 3000ft
5 to 8 km
1000 to 3000 ft
1500m to 5 km
500 to 1000 ft
800 to 1500m
200 to 500 ft
< 800m
< 200 ft
Symbols :   Thunderstorms  Fog  Heavy snow  Heavy precipitations  Wind > 20 kt
SIGMETs :     Misc.  Thunderstorms  Icing  Turbulence  Mountain Waves  Volcanic Ashes







- Airport Elevation : 2595 ft
- IATA code : SLM


LESA - Salamanca Matacan

CURRENT METAR :
  • 201730Z 10003KT 040V140 9999 FEW035 31/08 Q1019

EXPIRED METARs :
  • 201700Z 10004KT 060V140 9999 FEW035 31/09 Q1019
  • 201630Z 07004KT 330V140 9999 FEW035 31/06 Q1019
  • 201600Z 36003KT 320V070 9999 FEW035 31/07 Q1020
  • 201530Z 04005KT 350V100 9999 FEW035 31/07 Q1020
  • 201500Z 04002KT 9999 FEW035 31/08 Q1020

TAF TAF LESA
Valid from the 20 at 18:00 until the 21 at 18:00 UTC


201700Z 2018/2118 06006KT CAVOK TX32/2115Z TN12/2106Z
PROB40
TEMPO 2114/2118 SCT040CB
No reported NOTAMs for that airfield.
1 SIGMET reported for the Madrid FIR (LECM) :
 
Embedded thunderstorms
LECM SIGMET 2 VALID 201630/201830 LEVA
LECM MADRID FIR/UIR EMBD TS OBS AT 1614Z W OF LINE N3716 W00416 - N3855 W00415 TOP FL400 MOV NE NC=



MET'MAP, your aeronautical weather chart ! - Copyright ORBIFLY December 2007 - Disclaimer

ORBIFLY MET'MAP TEAM :

Programming & Development : Alexandra Zaïnal
Concept & Development : Baudouin d'Aumeries
Co-Development & Prog : Marc-Olivier Méhu
Technical & hardware support : Manuel Goepfert

Contact : metmap@orbifly.com




SOURCES & CREDITS :

   NOAA